createdAt,value
2022-08-26T03:58:32.054Z,85.68
2022-08-26T04:01:35.119Z,85.68
2022-08-26T04:04:37.838Z,87.40
2022-08-26T04:07:41.018Z,87.69
2022-08-26T04:10:43.637Z,87.52
2022-08-26T04:13:46.741Z,87.10
2022-08-26T04:16:51.145Z,87.37
2022-08-26T04:19:54.014Z,87.49
2022-08-26T04:22:56.478Z,87.90
2022-08-26T04:26:01.250Z,86.99
2022-08-26T04:29:09.969Z,87.04
2022-08-26T04:32:12.693Z,86.81
2022-08-26T04:35:15.279Z,87.30
2022-08-26T04:38:19.835Z,86.92
2022-08-26T04:41:23.702Z,86.96
2022-08-26T04:44:28.806Z,86.40
2022-08-26T04:47:32.459Z,86.32
2022-08-26T04:50:35.067Z,86.44
2022-08-26T04:53:38.088Z,86.66
2022-08-26T04:56:43.120Z,85.39
2022-08-26T04:59:45.598Z,83.23
2022-08-26T05:02:48.254Z,81.75
2022-08-26T05:05:54.272Z,83.40
2022-08-26T05:08:56.458Z,82.05
2022-08-26T05:12:00.805Z,81.59
2022-08-26T05:15:03.025Z,81.19
2022-08-26T05:18:07.293Z,83.00
2022-08-26T05:21:17.405Z,82.42
2022-08-26T05:24:19.890Z,82.53
2022-08-26T05:27:22.063Z,82.13
2022-08-26T05:30:24.388Z,81.38
2022-08-26T05:33:26.590Z,81.71
2022-08-26T05:36:30.709Z,81.37
2022-08-26T05:39:33.505Z,80.23
2022-08-26T05:42:36.724Z,80.82
2022-08-26T05:45:46.330Z,77.24
2022-08-26T05:48:48.928Z,72.69
2022-08-26T05:51:52.913Z,71.87
2022-08-26T05:54:55.363Z,72.97
2022-08-26T05:57:57.420Z,71.95
2022-08-26T06:01:04.361Z,71.34
2022-08-26T06:04:07.861Z,70.37
2022-08-26T06:07:11.473Z,69.83
2022-08-26T06:10:31.532Z,69.37
2022-08-26T06:13:35.176Z,67.68
2022-08-26T06:16:40.957Z,66.85
2022-08-26T06:19:43.230Z,69.01
2022-08-26T06:23:04.061Z,69.12
2022-08-26T06:26:06.593Z,67.85
2022-08-26T06:29:15.416Z,68.48
2022-08-26T06:32:26.372Z,66.26
2022-08-26T06:35:28.944Z,63.55
2022-08-26T06:38:31.182Z,63.29
2022-08-26T06:41:34.422Z,62.17
2022-08-26T06:44:36.568Z,62.96
2022-08-26T06:47:38.955Z,63.24
2022-08-26T06:50:42.265Z,62.59
2022-08-26T06:53:46.963Z,60.83
2022-08-26T06:56:50.342Z,58.32
2022-08-26T06:59:53.199Z,56.34
2022-08-26T07:02:55.534Z,59.74
2022-08-26T07:06:02.555Z,57.45
2022-08-26T07:09:07.649Z,56.59
2022-08-26T07:12:12.567Z,58.90
2022-08-26T07:15:15.845Z,57.55
2022-08-26T07:18:18.550Z,55.35
2022-08-26T07:21:24.882Z,56.70
2022-08-26T07:24:29.134Z,54.24
2022-08-26T07:27:31.348Z,54.63
2022-08-26T07:30:39.048Z,55.35
2022-08-26T07:33:43.586Z,54.66
2022-08-26T07:36:46.064Z,55.20
2022-08-26T07:39:48.255Z,53.16
2022-08-26T07:42:51.667Z,54.10
2022-08-26T07:45:54.970Z,54.24
2022-08-26T07:48:58.357Z,53.56
2022-08-26T07:52:00.465Z,53.09
2022-08-26T07:55:04.394Z,53.75
2022-08-26T07:58:06.739Z,52.56
2022-08-26T08:01:09.884Z,55.33
2022-08-26T08:04:14.641Z,54.00
2022-08-26T08:07:16.806Z,53.64
2022-08-26T08:10:25.099Z,54.79
2022-08-26T08:13:29.177Z,54.05
2022-08-26T08:16:32.322Z,54.13
2022-08-26T08:19:36.735Z,54.03
2022-08-26T08:22:39.685Z,52.46
2022-08-26T08:25:42.973Z,53.06
2022-08-26T08:28:47.905Z,58.66
2022-08-26T08:31:56.802Z,52.44
2022-08-26T08:35:02.552Z,52.39
2022-08-26T08:38:13.030Z,50.57
2022-08-26T08:41:49.781Z,52.18
2022-08-26T08:44:57.577Z,48.79
2022-08-26T08:48:04.248Z,49.52
2022-08-26T08:51:35.586Z,48.98
2022-08-26T08:54:38.128Z,47.86
2022-08-26T08:58:13.542Z,46.10
2022-08-26T09:01:30.035Z,45.93
2022-08-26T09:04:51.546Z,47.75
2022-08-26T09:08:07.126Z,45.97
2022-08-26T09:11:15.028Z,46.53
2022-08-26T09:14:17.647Z,47.55
2022-08-26T09:17:38.898Z,46.97
2022-08-26T09:21:03.398Z,45.09
2022-08-26T09:24:07.691Z,45.46
2022-08-26T09:27:44.861Z,45.54
2022-08-26T09:31:11.496Z,45.42
2022-08-26T09:34:20.857Z,45.94
2022-08-26T09:37:39.227Z,45.41
2022-08-26T09:40:58.930Z,43.27
2022-08-26T09:44:04.025Z,44.46
2022-08-26T09:47:07.645Z,45.49
2022-08-26T09:50:28.990Z,45.20
2022-08-26T09:53:36.498Z,45.04
2022-08-26T09:56:39.307Z,44.41
2022-08-26T09:59:42.742Z,45.33
2022-08-26T10:02:47.467Z,43.99
2022-08-26T10:06:06.661Z,43.81
2022-08-26T10:09:13.728Z,42.96
2022-08-26T10:12:21.349Z,43.22
2022-08-26T10:15:26.189Z,44.53
2022-08-26T10:18:34.365Z,42.77
2022-08-26T10:21:45.239Z,42.94
2022-08-26T10:24:55.110Z,44.10
2022-08-26T10:28:17.982Z,43.03
2022-08-26T10:31:40.338Z,42.72
2022-08-26T10:34:43.766Z,43.02
2022-08-26T10:37:51.107Z,42.83
2022-08-26T10:41:02.704Z,42.04
2022-08-26T10:44:15.186Z,42.37
2022-08-26T10:47:28.222Z,41.60
2022-08-26T10:50:43.220Z,40.61
2022-08-26T10:54:11.887Z,40.62
2022-08-26T10:57:17.098Z,41.40
2022-08-26T11:01:02.353Z,41.12
2022-08-26T11:04:38.950Z,39.54
2022-08-26T11:07:46.200Z,38.57
2022-08-26T11:10:51.623Z,38.94
2022-08-26T11:13:56.674Z,38.55
2022-08-26T11:17:00.032Z,38.71
2022-08-26T11:20:08.997Z,38.89
2022-08-26T11:23:37.442Z,38.88
2022-08-26T11:26:56.004Z,38.99
2022-08-26T11:30:06.846Z,39.84
2022-08-26T11:33:48.009Z,38.31
2022-08-26T11:36:57.518Z,38.28
2022-08-26T11:40:01.823Z,37.60
2022-08-26T11:43:08.439Z,38.46
2022-08-26T11:46:11.679Z,38.36
2022-08-26T11:49:14.685Z,38.44
2022-08-26T11:52:22.395Z,37.21
2022-08-26T11:55:24.725Z,37.32
2022-08-26T11:58:28.031Z,39.10
2022-08-26T12:01:35.618Z,37.48
2022-08-26T12:04:42.899Z,38.80
2022-08-26T12:07:49.592Z,37.67
2022-08-26T12:11:09.706Z,37.28
2022-08-26T12:14:24.720Z,38.58
2022-08-26T12:17:27.996Z,37.80
2022-08-26T12:20:47.993Z,37.25
2022-08-26T12:23:54.584Z,38.15
2022-08-26T12:27:15.459Z,37.41
2022-08-26T12:30:26.205Z,36.18
2022-08-26T12:33:29.339Z,37.17
2022-08-26T12:36:53.919Z,38.66
2022-08-26T12:40:16.007Z,38.23
2022-08-26T12:43:38.725Z,37.15
2022-08-26T12:46:40.924Z,38.26
2022-08-26T12:49:44.191Z,36.54
2022-08-26T12:53:05.504Z,37.01
2022-08-26T12:56:27.723Z,36.43
2022-08-26T12:59:30.143Z,35.40
2022-08-26T13:02:37.313Z,35.34
2022-08-26T13:05:39.678Z,35.86
2022-08-26T13:08:43.146Z,34.73
2022-08-26T13:11:45.350Z,35.54
2022-08-26T13:14:47.680Z,36.32
2022-08-26T13:17:49.761Z,35.97
2022-08-26T13:20:52.586Z,35.48
2022-08-26T13:23:54.943Z,35.34
2022-08-26T13:26:57.343Z,35.83
2022-08-26T13:30:00.229Z,35.77
2022-08-26T13:33:02.864Z,35.75
2022-08-26T13:36:06.890Z,35.58
2022-08-26T13:39:11.286Z,35.12
2022-08-26T13:42:13.405Z,35.31
2022-08-26T13:45:15.784Z,35.37
2022-08-26T13:48:21.542Z,36.64
2022-08-26T13:51:26.674Z,35.30
2022-08-26T13:54:28.734Z,35.68
2022-08-26T13:57:31.071Z,35.76
2022-08-26T14:00:33.831Z,34.64
2022-08-26T14:03:36.581Z,35.70
2022-08-26T14:06:38.740Z,34.81
2022-08-26T14:09:41.090Z,35.47
2022-08-26T14:12:43.768Z,35.23
2022-08-26T14:15:46.452Z,36.84
2022-08-26T14:18:50.886Z,35.41
2022-08-26T14:21:53.422Z,36.59
2022-08-26T14:24:56.434Z,34.08
2022-08-26T14:27:59.277Z,36.00
2022-08-26T14:31:02.474Z,34.98
2022-08-26T14:34:07.885Z,35.72
2022-08-26T14:37:13.536Z,33.80
2022-08-26T14:40:19.415Z,33.77
